Time;durP1;ratioP1;P1;durP2;ratioP2;P2;SDS_P1;SDS_P2;PMS_P1;PMS_P2;Temp;Humidity;BMP_temperature;BMP_pressure;BME280_temperature;BME280_humidity;BME280_pressure;Samples;Min_cycle;Max_cycle;Signal;HPM_P1;HPM_P2
2022/09/24 00:01:37;;;;;;;;;;;20.80;99.90;;;;;;5041833;28;19937;-64
2022/09/24 00:04:06;;;;;;;;;;;20.80;99.90;;;;;;5033664;28;19933;-64
2022/09/24 00:06:35;;;;;;;;;;;20.80;99.90;;;;;;5020628;28;20589;-68
2022/09/24 00:09:02;;;;;;;;;;;20.80;99.90;;;;;;5035490;28;20442;-64
2022/09/24 00:11:30;;;;;;;;;;;20.80;99.90;;;;;;5016441;28;19929;-63
2022/09/24 00:13:58;;;;;;;;;;;20.80;99.90;;;;;;5028923;28;19925;-63
2022/09/24 00:16:26;;;;;;;;;;;20.80;99.90;;;;;;5018002;28;20345;-63
2022/09/24 00:18:53;;;;;;;;;;;20.80;99.90;;;;;;5039565;28;20403;-64
2022/09/24 00:21:24;;;;;;;;;;;20.70;99.90;;;;;;5040300;28;19929;-65
2022/09/24 00:23:55;;;;;;;;;;;20.80;99.90;;;;;;5046328;28;19925;-65
2022/09/24 00:29:10;;;;;;;;;;;20.70;99.90;;;;;;5041282;28;19936;-63
2022/09/24 00:31:38;;;;;;;;;;;20.70;99.90;;;;;;5024740;28;19936;-64
2022/09/24 00:34:05;;;;;;;;;;;20.70;99.90;;;;;;5029150;28;19951;-61
2022/09/24 00:36:32;;;;;;;;;;;20.70;99.90;;;;;;5041706;28;19935;-63
2022/09/24 00:38:59;;;;;;;;;;;20.70;99.90;;;;;;5020695;28;19929;-63
2022/09/24 00:41:28;;;;;;;;;;;20.70;99.90;;;;;;5041191;28;19926;-63
2022/09/24 00:43:55;;;;;;;;;;;20.70;99.90;;;;;;5025273;28;19940;-65
2022/09/24 00:46:26;;;;;;;;;;;20.70;99.90;;;;;;5033730;28;19925;-65
2022/09/24 00:49:13;;;;;;;;;;;20.70;99.90;;;;;;5027473;28;19929;-63
2022/09/24 00:51:42;;;;;;;;;;;20.70;99.90;;;;;;5021487;28;19933;-64
2022/09/24 00:54:11;;;;;;;;;;;20.60;99.90;;;;;;5013437;28;19933;-60
2022/09/24 00:56:40;;;;;;;;;;;20.60;99.90;;;;;;5020362;28;19930;-65
2022/09/24 00:59:10;;;;;;;;;;;20.70;99.90;;;;;;5037663;28;19929;-66
2022/09/24 01:01:38;;;;;;;;;;;20.60;99.90;;;;;;5041603;28;19939;-64
2022/09/24 01:04:05;;;;;;;;;;;20.60;99.90;;;;;;5048536;28;19933;-66
2022/09/24 01:06:33;;;;;;;;;;;20.60;99.90;;;;;;5056569;28;19925;-63
2022/09/24 01:09:00;;;;;;;;;;;20.60;99.90;;;;;;5030997;28;19936;-66
2022/09/24 01:11:46;;;;;;;;;;;20.60;99.90;;;;;;5034203;28;19932;-65
2022/09/24 01:14:13;;;;;;;;;;;20.60;99.90;;;;;;5024590;28;19925;-62
2022/09/24 01:16:40;;;;;;;;;;;20.60;99.90;;;;;;5025000;28;19930;-62
2022/09/24 01:19:13;;;;;;;;;;;20.60;99.90;;;;;;5041439;28;19951;-64
2022/09/24 01:21:44;;;;;;;;;;;20.60;99.90;;;;;;5005355;28;19971;-62
2022/09/24 01:24:11;;;;;;;;;;;20.60;99.90;;;;;;5027355;28;19932;-64
2022/09/24 01:26:44;;;;;;;;;;;20.60;99.90;;;;;;5039494;28;19929;-66
2022/09/24 01:29:27;;;;;;;;;;;20.60;99.90;;;;;;5032497;28;20034;-65
2022/09/24 01:32:06;;;;;;;;;;;20.60;99.90;;;;;;5040012;28;20324;-64
2022/09/24 01:34:48;;;;;;;;;;;20.60;99.90;;;;;;5021725;28;19928;-61
2022/09/24 01:37:17;;;;;;;;;;;20.60;99.90;;;;;;5035864;28;20318;-65
2022/09/24 01:39:45;;;;;;;;;;;20.60;99.90;;;;;;5024145;28;19930;-65
2022/09/24 01:42:13;;;;;;;;;;;20.60;99.90;;;;;;5044652;28;20293;-64
2022/09/24 01:44:43;;;;;;;;;;;20.60;99.90;;;;;;5037277;28;19937;-65
2022/09/24 01:47:15;;;;;;;;;;;20.60;99.90;;;;;;5034648;28;20313;-61
2022/09/24 01:49:43;;;;;;;;;;;20.50;99.90;;;;;;5058142;28;19936;-64
2022/09/24 01:52:13;;;;;;;;;;;20.50;99.90;;;;;;5042425;28;19929;-63
2022/09/24 01:54:41;;;;;;;;;;;20.50;99.90;;;;;;5063282;28;20401;-63
2022/09/24 01:57:12;;;;;;;;;;;20.50;99.90;;;;;;5053329;28;19935;-63
2022/09/24 01:59:45;;;;;;;;;;;20.50;99.90;;;;;;5054316;28;19935;-65
2022/09/24 02:02:21;;;;;;;;;;;20.50;99.90;;;;;;5047281;28;19931;-61
2022/09/24 02:04:52;;;;;;;;;;;20.50;99.90;;;;;;5046073;28;19944;-61
2022/09/24 02:07:23;;;;;;;;;;;20.50;99.90;;;;;;5036455;28;19929;-61
2022/09/24 02:09:50;;;;;;;;;;;20.50;99.90;;;;;;5047517;28;20335;-61
2022/09/24 02:12:21;;;;;;;;;;;20.50;99.90;;;;;;5033399;28;19932;-64
2022/09/24 02:14:50;;;;;;;;;;;20.50;99.90;;;;;;5023429;28;19925;-63
2022/09/24 02:17:17;;;;;;;;;;;20.50;99.90;;;;;;5033044;28;20304;-61
2022/09/24 02:19:45;;;;;;;;;;;20.50;99.90;;;;;;5041578;28;19924;-63
2022/09/24 02:22:13;;;;;;;;;;;20.50;99.90;;;;;;5035965;28;19933;-62
2022/09/24 02:24:51;;;;;;;;;;;20.50;99.90;;;;;;5037043;28;19929;-63
2022/09/24 02:27:18;;;;;;;;;;;20.50;99.90;;;;;;5029487;28;19932;-61
2022/09/24 02:29:45;;;;;;;;;;;20.50;99.90;;;;;;5042301;28;20308;-63
2022/09/24 02:32:14;;;;;;;;;;;20.40;99.90;;;;;;5034447;28;19951;-61
2022/09/24 02:34:45;;;;;;;;;;;20.50;99.90;;;;;;5032098;28;19929;-63
2022/09/24 02:37:14;;;;;;;;;;;20.40;99.90;;;;;;5045156;28;19925;-62
2022/09/24 02:39:41;;;;;;;;;;;20.40;99.90;;;;;;5029393;28;19929;-62
2022/09/24 02:42:09;;;;;;;;;;;20.40;99.90;;;;;;5021553;28;20475;-55
2022/09/24 02:44:37;;;;;;;;;;;20.40;99.90;;;;;;5043754;28;19953;-63
2022/09/24 02:47:05;;;;;;;;;;;20.40;99.90;;;;;;5034668;28;20284;-62
2022/09/24 02:49:32;;;;;;;;;;;20.40;99.90;;;;;;5042005;28;20408;-62
2022/09/24 02:51:59;;;;;;;;;;;20.40;99.90;;;;;;5030899;28;19925;-63
2022/09/24 02:54:26;;;;;;;;;;;20.40;99.90;;;;;;5026086;28;19930;-63
2022/09/24 02:56:54;;;;;;;;;;;20.40;99.90;;;;;;5033908;28;19928;-61
2022/09/24 02:59:21;;;;;;;;;;;20.40;99.90;;;;;;5042072;28;19925;-64
2022/09/24 03:01:49;;;;;;;;;;;20.40;99.90;;;;;;5025377;28;20401;-58
2022/09/24 03:04:16;;;;;;;;;;;20.40;99.90;;;;;;5026705;28;19929;-62
2022/09/24 03:06:43;;;;;;;;;;;20.30;99.90;;;;;;5049289;28;19929;-67
2022/09/24 03:09:11;;;;;;;;;;;20.40;99.90;;;;;;5048764;28;19936;-67
2022/09/24 03:11:39;;;;;;;;;;;20.40;99.90;;;;;;5043196;28;19929;-66
2022/09/24 03:14:06;;;;;;;;;;;20.30;99.90;;;;;;5028263;28;19936;-63
2022/09/24 03:16:33;;;;;;;;;;;20.30;99.90;;;;;;5061932;28;19935;-63
2022/09/24 03:19:00;;;;;;;;;;;20.30;99.90;;;;;;5042320;28;20412;-65
2022/09/24 03:21:27;;;;;;;;;;;20.30;99.90;;;;;;5013534;28;19940;-62
2022/09/24 03:23:55;;;;;;;;;;;20.30;99.90;;;;;;5040965;28;19929;-64
2022/09/24 03:26:22;;;;;;;;;;;20.30;99.90;;;;;;5034674;28;19926;-64
2022/09/24 03:28:49;;;;;;;;;;;20.30;99.90;;;;;;5037184;28;19935;-63
2022/09/24 03:31:16;;;;;;;;;;;20.30;99.90;;;;;;5038313;28;20422;-62
2022/09/24 03:33:45;;;;;;;;;;;20.30;99.90;;;;;;5041307;28;19928;-62
2022/09/24 03:36:12;;;;;;;;;;;20.30;99.90;;;;;;5032004;28;19925;-64
2022/09/24 03:38:39;;;;;;;;;;;20.30;99.90;;;;;;5014982;28;20293;-62
2022/09/24 03:41:07;;;;;;;;;;;20.30;99.90;;;;;;5042655;28;20400;-61
2022/09/24 03:43:34;;;;;;;;;;;20.30;99.90;;;;;;5041723;28;19929;-64
2022/09/24 03:46:02;;;;;;;;;;;20.30;99.90;;;;;;5038794;28;19954;-64
2022/09/24 03:48:29;;;;;;;;;;;20.30;99.90;;;;;;5022672;28;19956;-60
2022/09/24 03:50:56;;;;;;;;;;;20.30;99.90;;;;;;5038098;28;19936;-63
2022/09/24 03:53:23;;;;;;;;;;;20.30;99.90;;;;;;5039308;28;20354;-64
2022/09/24 03:55:54;;;;;;;;;;;20.30;99.90;;;;;;5027428;28;19936;-64
2022/09/24 03:58:21;;;;;;;;;;;20.60;99.90;;;;;;5044724;28;19933;-64
2022/09/24 04:00:52;;;;;;;;;;;20.90;99.90;;;;;;5019415;28;19933;-64
2022/09/24 04:03:20;;;;;;;;;;;21.20;99.90;;;;;;5032623;28;19930;-63
2022/09/24 04:05:50;;;;;;;;;;;21.40;99.90;;;;;;5033844;28;19937;-62
2022/09/24 04:08:18;;;;;;;;;;;21.60;99.90;;;;;;5042469;28;19929;-62
2022/09/24 04:10:45;;;;;;;;;;;21.80;99.90;;;;;;5042207;28;19929;-65
2022/09/24 04:13:12;;;;;;;;;;;21.80;99.90;;;;;;5059359;28;19935;-66
2022/09/24 04:15:39;;;;;;;;;;;22.00;99.90;;;;;;5050927;28;19925;-63
2022/09/24 04:18:07;;;;;;;;;;;22.10;99.90;;;;;;5049829;28;19925;-65
2022/09/24 04:20:34;;;;;;;;;;;22.20;99.90;;;;;;5036630;28;19929;-64
2022/09/24 04:23:02;;;;;;;;;;;22.30;99.90;;;;;;5016191;28;19930;-66
2022/09/24 04:25:30;;;;;;;;;;;22.30;99.90;;;;;;5038178;28;19929;-64
2022/09/24 04:27:58;;;;;;;;;;;22.40;99.90;;;;;;5030837;28;19933;-66
2022/09/24 04:30:26;;;;;;;;;;;22.50;99.90;;;;;;5042079;28;19928;-63
2022/09/24 04:32:53;;;;;;;;;;;22.50;99.90;;;;;;5032914;28;19936;-63
2022/09/24 04:35:21;;;;;;;;;;;22.60;99.90;;;;;;5033098;28;19924;-62
2022/09/24 04:37:49;;;;;;;;;;;22.60;99.90;;;;;;5033204;28;19940;-63
2022/09/24 04:40:16;;;;;;;;;;;22.70;99.90;;;;;;5014354;28;19925;-64
2022/09/24 04:42:45;;;;;;;;;;;22.70;99.90;;;;;;5021486;28;20349;-61
2022/09/24 04:45:14;;;;;;;;;;;22.70;99.90;;;;;;5031419;28;19932;-63
2022/09/24 04:47:41;;;;;;;;;;;22.70;99.90;;;;;;5025788;28;19929;-64
2022/09/24 04:50:10;;;;;;;;;;;22.80;99.90;;;;;;5023331;28;20427;-63
2022/09/24 04:52:37;;;;;;;;;;;22.80;99.90;;;;;;5022106;28;19932;-63
2022/09/24 04:55:05;;;;;;;;;;;22.90;99.90;;;;;;5039310;28;20509;-66
2022/09/24 04:57:33;;;;;;;;;;;22.90;99.90;;;;;;5014379;28;19941;-62
2022/09/24 05:00:02;;;;;;;;;;;22.90;99.90;;;;;;5029583;28;20389;-63
2022/09/24 05:02:30;;;;;;;;;;;22.80;99.90;;;;;;5033397;28;19929;-65
2022/09/24 05:04:57;;;;;;;;;;;22.80;99.90;;;;;;5048661;28;20309;-64
2022/09/24 05:07:24;;;;;;;;;;;22.70;99.90;;;;;;5017097;28;19929;-61
2022/09/24 05:09:51;;;;;;;;;;;22.70;99.90;;;;;;5049237;28;19925;-63
2022/09/24 05:12:20;;;;;;;;;;;22.70;99.90;;;;;;5032207;28;19957;-67
2022/09/24 05:14:47;;;;;;;;;;;22.60;99.90;;;;;;5036438;28;19924;-64
2022/09/24 05:17:14;;;;;;;;;;;22.60;99.90;;;;;;5052064;28;19924;-67
2022/09/24 05:19:41;;;;;;;;;;;22.60;99.90;;;;;;5060533;28;19933;-66
2022/09/24 05:22:08;;;;;;;;;;;22.50;99.90;;;;;;5054816;28;19933;-67
2022/09/24 05:24:35;;;;;;;;;;;22.50;99.90;;;;;;5057615;28;19929;-68
2022/09/24 05:27:08;;;;;;;;;;;22.50;99.90;;;;;;5043284;28;19925;-65
2022/09/24 05:29:39;;;;;;;;;;;22.40;99.90;;;;;;5035996;28;19936;-64
2022/09/24 05:32:08;;;;;;;;;;;22.40;99.90;;;;;;5039175;28;19929;-63
2022/09/24 05:34:35;;;;;;;;;;;22.40;99.90;;;;;;5035303;28;19925;-65
2022/09/24 05:37:02;;;;;;;;;;;22.30;99.90;;;;;;5033271;28;19928;-65
2022/09/24 05:39:30;;;;;;;;;;;22.30;99.90;;;;;;5030068;28;19925;-64
2022/09/24 05:42:03;;;;;;;;;;;22.30;99.90;;;;;;5026450;28;19952;-65
2022/09/24 05:44:30;;;;;;;;;;;22.20;99.90;;;;;;5036809;28;20407;-65
2022/09/24 05:46:57;;;;;;;;;;;22.20;99.90;;;;;;5031659;28;20303;-63
2022/09/24 05:49:25;;;;;;;;;;;22.20;99.90;;;;;;5041092;28;19929;-64
2022/09/24 05:51:52;;;;;;;;;;;22.20;99.90;;;;;;5022384;28;20317;-63
2022/09/24 05:54:19;;;;;;;;;;;22.10;99.90;;;;;;5024725;28;19929;-66
2022/09/24 05:56:46;;;;;;;;;;;22.10;99.90;;;;;;5032327;28;20000;-62
2022/09/24 05:59:13;;;;;;;;;;;22.00;99.90;;;;;;5030824;28;20256;-64
2022/09/24 06:01:40;;;;;;;;;;;22.00;99.90;;;;;;5032859;28;19929;-66
2022/09/24 06:04:09;;;;;;;;;;;22.00;99.90;;;;;;5022991;28;20419;-68
2022/09/24 06:06:36;;;;;;;;;;;22.00;99.90;;;;;;5015686;28;20712;-65
2022/09/24 06:09:04;;;;;;;;;;;22.00;99.90;;;;;;5029636;28;19928;-67
2022/09/24 06:11:34;;;;;;;;;;;22.10;99.90;;;;;;5029945;28;20404;-69
2022/09/24 06:14:07;;;;;;;;;;;22.00;99.90;;;;;;5030642;28;19925;-65
2022/09/24 06:16:34;;;;;;;;;;;22.00;99.90;;;;;;5028741;28;20284;-63
2022/09/24 06:19:02;;;;;;;;;;;22.00;99.90;;;;;;5007472;28;19925;-63
2022/09/24 06:21:29;;;;;;;;;;;22.00;99.90;;;;;;5024713;28;20017;-59
2022/09/24 06:23:56;;;;;;;;;;;21.90;99.90;;;;;;5023735;28;20301;-63
2022/09/24 06:26:25;;;;;;;;;;;21.90;99.90;;;;;;5029654;28;19944;-65
2022/09/24 06:28:52;;;;;;;;;;;21.90;99.90;;;;;;5021704;28;19952;-63
2022/09/24 06:31:19;;;;;;;;;;;21.90;99.90;;;;;;5028013;28;20409;-64
2022/09/24 06:33:46;;;;;;;;;;;21.80;99.90;;;;;;5009414;28;20336;-64
2022/09/24 06:36:14;;;;;;;;;;;21.80;99.90;;;;;;5028498;28;19938;-66
2022/09/24 06:38:41;;;;;;;;;;;21.80;99.90;;;;;;5018388;28;19925;-64
2022/09/24 06:41:08;;;;;;;;;;;21.80;99.90;;;;;;5039871;28;20394;-64
2022/09/24 06:43:36;;;;;;;;;;;21.80;99.90;;;;;;5042187;28;19925;-64
2022/09/24 06:46:03;;;;;;;;;;;21.80;99.90;;;;;;5037241;28;19925;-62
2022/09/24 06:48:30;;;;;;;;;;;21.70;99.90;;;;;;5019895;28;19929;-63
2022/09/24 06:50:58;;;;;;;;;;;21.70;99.90;;;;;;5035002;28;19929;-66
2022/09/24 06:53:25;;;;;;;;;;;21.70;99.90;;;;;;5024884;28;19929;-65
2022/09/24 06:55:55;;;;;;;;;;;21.70;99.90;;;;;;5011632;28;19929;-62
2022/09/24 06:58:23;;;;;;;;;;;21.70;99.90;;;;;;5025812;28;20204;-64
2022/09/24 07:00:51;;;;;;;;;;;21.60;99.90;;;;;;5029094;28;20008;-60
2022/09/24 07:03:19;;;;;;;;;;;21.30;99.90;;;;;;5030491;28;19933;-60
2022/09/24 07:05:46;;;;;;;;;;;20.60;99.90;;;;;;5034314;28;19936;-61
2022/09/24 07:08:13;;;;;;;;;;;20.40;99.90;;;;;;5023784;28;19929;-61
2022/09/24 07:10:41;;;;;;;;;;;20.60;99.90;;;;;;5025157;28;19936;-62
2022/09/24 07:13:08;;;;;;;;;;;20.90;99.90;;;;;;4993541;28;19937;-60
2022/09/24 07:15:35;;;;;;;;;;;21.20;99.90;;;;;;5032731;28;19929;-65
2022/09/24 07:18:02;;;;;;;;;;;21.40;99.90;;;;;;5026791;28;19925;-64
2022/09/24 07:20:30;;;;;;;;;;;21.40;99.90;;;;;;5026853;28;19940;-64
2022/09/24 07:22:57;;;;;;;;;;;21.50;99.90;;;;;;5027069;28;19936;-58
2022/09/24 07:25:24;;;;;;;;;;;21.50;99.90;;;;;;5012599;28;19933;-58
2022/09/24 07:27:51;;;;;;;;;;;21.50;99.90;;;;;;5038358;28;19933;-62
2022/09/24 07:30:18;;;;;;;;;;;21.50;99.90;;;;;;5036670;28;19992;-61
2022/09/24 07:32:45;;;;;;;;;;;21.40;99.90;;;;;;5039919;28;20456;-66
2022/09/24 07:35:12;;;;;;;;;;;21.50;99.90;;;;;;5033741;28;19937;-65
2022/09/24 07:37:39;;;;;;;;;;;21.50;99.90;;;;;;5035121;28;19933;-62
2022/09/24 07:40:07;;;;;;;;;;;21.50;99.90;;;;;;5013040;28;19933;-63
2022/09/24 07:42:34;;;;;;;;;;;21.50;99.90;;;;;;5023116;28;19937;-66
2022/09/24 07:45:01;;;;;;;;;;;21.50;99.90;;;;;;5028239;28;19929;-60
2022/09/24 07:47:28;;;;;;;;;;;21.40;99.90;;;;;;5030121;28;20321;-62
2022/09/24 07:49:55;;;;;;;;;;;21.40;99.90;;;;;;5023275;28;20412;-59
2022/09/24 07:52:22;;;;;;;;;;;21.30;99.90;;;;;;5022151;28;19929;-59
2022/09/24 07:54:51;;;;;;;;;;;21.20;99.90;;;;;;5011254;28;19936;-60
2022/09/24 07:57:18;;;;;;;;;;;21.20;99.90;;;;;;5023448;28;19932;-61
2022/09/24 07:59:45;;;;;;;;;;;21.10;99.90;;;;;;5021235;28;19940;-62
2022/09/24 08:02:16;;;;;;;;;;;21.10;99.90;;;;;;5022184;28;19926;-61
2022/09/24 08:04:43;;;;;;;;;;;21.10;99.90;;;;;;5020178;28;19929;-60
2022/09/24 08:07:13;;;;;;;;;;;21.10;99.90;;;;;;5034520;28;19940;-61
2022/09/24 08:09:40;;;;;;;;;;;21.20;99.90;;;;;;5038582;28;19933;-59
2022/09/24 08:12:08;;;;;;;;;;;21.10;99.90;;;;;;5034134;28;19924;-60
2022/09/24 08:14:35;;;;;;;;;;;21.20;99.90;;;;;;5034968;28;19951;-61
2022/09/24 08:17:02;;;;;;;;;;;21.10;99.90;;;;;;5023503;28;19925;-60
2022/09/24 08:19:32;;;;;;;;;;;21.20;99.90;;;;;;5038000;28;20177;-58
2022/09/24 08:21:59;;;;;;;;;;;21.20;99.90;;;;;;5020367;28;19936;-60
2022/09/24 08:24:26;;;;;;;;;;;21.10;99.90;;;;;;5033251;28;20253;-60
2022/09/24 08:26:53;;;;;;;;;;;21.10;99.90;;;;;;5022726;28;20003;-61
2022/09/24 08:29:20;;;;;;;;;;;21.10;99.90;;;;;;5025541;28;19944;-59
2022/09/24 08:31:48;;;;;;;;;;;21.10;99.90;;;;;;5037858;28;19931;-61
2022/09/24 08:34:15;;;;;;;;;;;21.20;99.90;;;;;;5034705;28;19930;-61
2022/09/24 08:36:42;;;;;;;;;;;21.20;99.90;;;;;;5038714;28;19924;-59
2022/09/24 08:39:11;;;;;;;;;;;21.10;99.90;;;;;;5035641;28;19937;-58
2022/09/24 08:41:47;;;;;;;;;;;21.10;99.90;;;;;;5043039;28;19928;-58
2022/09/24 08:47:21;;;;;;;;;;;21.20;99.90;;;;;;5042400;28;19932;-62
2022/09/24 08:47:21;;;;;;;;;;;21.20;99.90;;;;;;5031385;28;20007;-61
2022/09/24 08:50:01;;;;;;;;;;;21.20;99.90;;;;;;5024947;28;19933;-62
2022/09/24 08:52:28;;;;;;;;;;;21.20;99.90;;;;;;5040784;28;19932;-61
2022/09/24 08:54:57;;;;;;;;;;;21.20;99.90;;;;;;5044420;28;19928;-59
2022/09/24 08:57:25;;;;;;;;;;;21.20;99.90;;;;;;5025967;28;19930;-60
2022/09/24 08:59:52;;;;;;;;;;;21.20;99.90;;;;;;5041941;28;19929;-54
2022/09/24 09:02:37;;;;;;;;;;;21.20;99.90;;;;;;5027196;28;19929;-58
2022/09/24 09:05:14;;;;;;;;;;;21.30;99.90;;;;;;5045098;28;19929;-62
2022/09/24 09:07:44;;;;;;;;;;;21.20;99.90;;;;;;5032235;28;19935;-60
2022/09/24 09:10:11;;;;;;;;;;;21.30;99.90;;;;;;5027232;28;19933;-58
2022/09/24 09:12:40;;;;;;;;;;;21.30;99.90;;;;;;5025442;28;19932;-62
2022/09/24 09:15:16;;;;;;;;;;;21.30;99.90;;;;;;5024838;28;19929;-54
2022/09/24 09:17:46;;;;;;;;;;;21.30;99.90;;;;;;5025175;28;19935;-62
2022/09/24 09:20:20;;;;;;;;;;;21.30;99.90;;;;;;5041424;28;19929;-62
2022/09/24 09:22:48;;;;;;;;;;;21.30;99.90;;;;;;5012119;28;19925;-64
2022/09/24 09:25:23;;;;;;;;;;;21.30;99.90;;;;;;5033318;28;19926;-63
2022/09/24 09:27:54;;;;;;;;;;;21.30;99.90;;;;;;5023323;28;19932;-63
2022/09/24 09:30:22;;;;;;;;;;;21.30;99.90;;;;;;5036573;28;19929;-60
2022/09/24 09:33:09;;;;;;;;;;;21.30;99.90;;;;;;5035487;28;19932;-60
2022/09/24 09:35:39;;;;;;;;;;;21.30;99.90;;;;;;5002714;28;20396;-59
2022/09/24 09:38:06;;;;;;;;;;;21.30;99.90;;;;;;5017674;28;19932;-62
2022/09/24 09:40:33;;;;;;;;;;;21.30;99.90;;;;;;5028844;28;19929;-59
2022/09/24 09:43:04;;;;;;;;;;;21.30;99.90;;;;;;5050614;28;20747;-62
2022/09/24 09:45:45;;;;;;;;;;;21.30;99.90;;;;;;5025634;28;19929;-62
2022/09/24 09:48:15;;;;;;;;;;;21.30;99.90;;;;;;5022738;28;19933;-64
2022/09/24 09:50:54;;;;;;;;;;;21.30;99.90;;;;;;5017087;28;19935;-61
2022/09/24 09:53:22;;;;;;;;;;;21.30;99.90;;;;;;5028162;28;19940;-62
2022/09/24 09:56:00;;;;;;;;;;;21.30;99.90;;;;;;5028702;28;19929;-60
2022/09/24 09:58:28;;;;;;;;;;;21.30;99.90;;;;;;5039024;28;19948;-60
2022/09/24 10:01:03;;;;;;;;;;;21.30;99.90;;;;;;5036433;28;19997;-62
2022/09/24 10:03:32;;;;;;;;;;;21.20;99.90;;;;;;5047579;28;19932;-58
2022/09/24 10:06:00;;;;;;;;;;;21.20;99.90;;;;;;5031636;28;19929;-58
2022/09/24 10:08:28;;;;;;;;;;;21.20;99.90;;;;;;5027375;28;19933;-59
2022/09/24 10:10:56;;;;;;;;;;;21.20;99.90;;;;;;5047433;28;20308;-60
2022/09/24 10:13:23;;;;;;;;;;;21.20;99.90;;;;;;5035962;28;20248;-60
2022/09/24 10:15:51;;;;;;;;;;;21.20;99.90;;;;;;5048300;28;19959;-61
2022/09/24 10:18:37;;;;;;;;;;;21.20;99.90;;;;;;5030805;28;19925;-62
2022/09/24 10:21:07;;;;;;;;;;;21.20;99.90;;;;;;5030798;28;19929;-63
2022/09/24 10:23:36;;;;;;;;;;;21.20;99.90;;;;;;5032278;28;19948;-60
2022/09/24 10:26:04;;;;;;;;;;;21.20;99.90;;;;;;5024119;28;20665;-62
2022/09/24 10:31:22;;;;;;;;;;;21.20;99.90;;;;;;5034814;28;20396;-59
2022/09/24 10:33:52;;;;;;;;;;;21.20;99.90;;;;;;5025665;28;19925;-61
2022/09/24 10:36:21;;;;;;;;;;;21.20;99.90;;;;;;5028701;28;19975;-63
2022/09/24 10:38:48;;;;;;;;;;;21.20;99.90;;;;;;5030159;28;19932;-62
2022/09/24 10:41:24;;;;;;;;;;;21.10;99.90;;;;;;5021244;28;19944;-59
2022/09/24 10:43:52;;;;;;;;;;;21.10;99.90;;;;;;5042913;28;19936;-61
2022/09/24 10:46:33;;;;;;;;;;;21.10;99.90;;;;;;5036558;28;19929;-62
2022/09/24 10:49:06;;;;;;;;;;;21.10;99.90;;;;;;5036552;28;20420;-59
2022/09/24 10:52:09;;;;;;;;;;;21.10;99.90;;;;;;4995707;28;19932;-62
2022/09/24 10:54:36;;;;;;;;;;;21.10;99.90;;;;;;4910993;29;19927;-63
2022/09/24 10:57:10;;;;;;;;;;;21.10;99.90;;;;;;5007051;28;19925;-61
2022/09/24 11:00:01;;;;;;;;;;;21.10;99.90;;;;;;5028137;28;19940;-61
2022/09/24 11:02:58;;;;;;;;;;;21.10;99.90;;;;;;5039823;28;20412;-60
2022/09/24 11:05:38;;;;;;;;;;;21.10;99.90;;;;;;5041082;28;19929;-61
2022/09/24 11:08:17;;;;;;;;;;;21.10;99.90;;;;;;5019164;28;19929;-61
2022/09/24 11:10:50;;;;;;;;;;;21.10;99.90;;;;;;5010121;28;19935;-63
2022/09/24 11:13:18;;;;;;;;;;;21.10;99.90;;;;;;5034384;28;20349;-62
2022/09/24 11:16:08;;;;;;;;;;;21.10;99.90;;;;;;5007927;28;20385;-61
2022/09/24 11:18:45;;;;;;;;;;;21.10;99.90;;;;;;5017649;28;19939;-61
2022/09/24 11:21:15;;;;;;;;;;;21.10;99.90;;;;;;5017854;28;19941;-64
2022/09/24 11:24:08;;;;;;;;;;;21.10;99.90;;;;;;5034721;28;19936;-57
2022/09/24 11:26:50;;;;;;;;;;;21.10;99.90;;;;;;4994767;28;19936;-61
2022/09/24 11:29:40;;;;;;;;;;;21.10;99.90;;;;;;5025315;28;19929;-63
2022/09/24 11:32:40;;;;;;;;;;;21.10;99.90;;;;;;5012645;28;19925;-61
2022/09/24 11:35:25;;;;;;;;;;;21.10;99.90;;;;;;5005549;28;19929;-63
2022/09/24 11:38:02;;;;;;;;;;;21.10;99.90;;;;;;5002972;28;19925;-62
2022/09/24 11:40:41;;;;;;;;;;;21.10;99.90;;;;;;5018444;28;19952;-58
2022/09/24 11:43:11;;;;;;;;;;;21.10;99.90;;;;;;5014568;28;20445;-62
2022/09/24 11:45:41;;;;;;;;;;;21.10;99.90;;;;;;5023526;28;19925;-60
2022/09/24 11:48:15;;;;;;;;;;;21.10;99.90;;;;;;5007901;28;19925;-59
2022/09/24 11:50:45;;;;;;;;;;;21.10;99.90;;;;;;5026473;28;20477;-59
2022/09/24 11:53:37;;;;;;;;;;;21.10;99.90;;;;;;5030327;28;20389;-57
2022/09/24 11:56:09;;;;;;;;;;;21.10;99.90;;;;;;5026011;28;19929;-62
2022/09/24 11:59:02;;;;;;;;;;;21.10;99.90;;;;;;5017027;28;19936;-61
2022/09/24 12:01:34;;;;;;;;;;;21.10;99.90;;;;;;5024688;28;19937;-62
2022/09/24 12:04:09;;;;;;;;;;;21.10;99.90;;;;;;5015480;28;19925;-58
2022/09/24 12:06:40;;;;;;;;;;;21.10;99.90;;;;;;5003050;28;19955;-64
2022/09/24 12:09:07;;;;;;;;;;;21.10;99.90;;;;;;5027359;28;19936;-58
2022/09/24 12:11:38;;;;;;;;;;;21.10;99.90;;;;;;5024718;28;19925;-61
2022/09/24 12:14:11;;;;;;;;;;;21.10;99.90;;;;;;5014045;28;19948;-62
2022/09/24 12:16:40;;;;;;;;;;;21.10;99.90;;;;;;5003648;28;19941;-65
2022/09/24 12:19:11;;;;;;;;;;;21.10;99.90;;;;;;5008937;28;19929;-62
2022/09/24 12:21:40;;;;;;;;;;;21.10;99.90;;;;;;5010482;28;20317;-62
2022/09/24 12:24:21;;;;;;;;;;;21.10;99.90;;;;;;5010647;28;19929;-63
2022/09/24 12:26:48;;;;;;;;;;;21.10;99.90;;;;;;5016053;28;20358;-62
2022/09/24 12:35:24;;;;;;;;;;;21.10;99.90;;;;;;5023129;28;19930;-62
2022/09/24 12:37:55;;;;;;;;;;;21.10;99.90;;;;;;5030849;28;19929;-59
2022/09/24 12:40:34;;;;;;;;;;;21.10;99.90;;;;;;5042706;28;20394;-59
2022/09/24 12:43:04;;;;;;;;;;;21.10;99.90;;;;;;5041162;28;19929;-60
2022/09/24 12:45:33;;;;;;;;;;;21.10;99.90;;;;;;5042039;28;19929;-60
2022/09/24 12:48:00;;;;;;;;;;;21.10;99.90;;;;;;5015002;28;20327;-58
2022/09/24 12:50:29;;;;;;;;;;;21.10;99.90;;;;;;5025928;28;19933;-54
2022/09/24 12:52:57;;;;;;;;;;;21.10;99.90;;;;;;5021187;28;20393;-58
2022/09/24 12:55:25;;;;;;;;;;;21.10;99.90;;;;;;5015097;28;20388;-58
2022/09/24 12:58:06;;;;;;;;;;;21.10;99.90;;;;;;5040000;28;19936;-61
2022/09/24 13:00:38;;;;;;;;;;;21.10;99.90;;;;;;5014055;28;19936;-61
2022/09/24 13:03:06;;;;;;;;;;;21.10;99.90;;;;;;5026906;28;19929;-61
2022/09/24 13:05:34;;;;;;;;;;;21.10;99.90;;;;;;5029555;28;20605;-60
2022/09/24 13:08:02;;;;;;;;;;;21.10;99.90;;;;;;5045216;28;19935;-59
2022/09/24 13:10:31;;;;;;;;;;;21.10;99.90;;;;;;5039194;28;19936;-59
2022/09/24 13:12:59;;;;;;;;;;;21.10;99.90;;;;;;5013321;28;19929;-61
2022/09/24 13:15:27;;;;;;;;;;;21.10;99.90;;;;;;5016814;28;20427;-61
2022/09/24 13:18:03;;;;;;;;;;;21.10;99.90;;;;;;5016140;28;19929;-58
2022/09/24 13:20:31;;;;;;;;;;;21.10;99.90;;;;;;5021512;28;19929;-62
2022/09/24 13:23:11;;;;;;;;;;;21.10;99.90;;;;;;5036673;28;19928;-57
2022/09/24 13:25:38;;;;;;;;;;;21.10;99.90;;;;;;5014387;28;19925;-59
2022/09/24 13:28:24;;;;;;;;;;;21.10;99.90;;;;;;5021325;28;19929;-61
2022/09/24 13:31:16;;;;;;;;;;;21.10;99.90;;;;;;5028236;28;20296;-61
2022/09/24 13:33:46;;;;;;;;;;;21.20;99.90;;;;;;5029632;28;19935;-63
2022/09/24 13:36:14;;;;;;;;;;;21.10;99.90;;;;;;5033376;28;19936;-57
2022/09/24 13:39:00;;;;;;;;;;;21.10;99.90;;;;;;5025359;28;20421;-61
2022/09/24 13:41:36;;;;;;;;;;;21.10;99.90;;;;;;5039681;28;20345;-61
2022/09/24 13:44:06;;;;;;;;;;;21.10;99.90;;;;;;5048241;28;19929;-58
2022/09/24 13:46:35;;;;;;;;;;;21.10;99.90;;;;;;5026364;28;19928;-59
2022/09/24 13:49:07;;;;;;;;;;;21.10;99.90;;;;;;5027676;28;19936;-61
2022/09/24 13:51:36;;;;;;;;;;;21.10;99.90;;;;;;5020461;28;19925;-57
2022/09/24 13:54:13;;;;;;;;;;;21.10;99.90;;;;;;5039946;28;19925;-64
2022/09/24 13:56:41;;;;;;;;;;;21.00;99.90;;;;;;4989729;28;20323;-59
2022/09/24 13:59:09;;;;;;;;;;;21.10;99.90;;;;;;5041425;28;19932;-58
2022/09/24 14:01:45;;;;;;;;;;;21.10;99.90;;;;;;5041793;28;19936;-61
2022/09/24 14:04:15;;;;;;;;;;;21.00;99.90;;;;;;5057599;28;20321;-60
2022/09/24 14:06:44;;;;;;;;;;;21.00;99.90;;;;;;5052102;28;19935;-64
2022/09/24 14:09:31;;;;;;;;;;;21.00;99.90;;;;;;5047248;28;19925;-63
2022/09/24 14:11:59;;;;;;;;;;;21.00;99.90;;;;;;5052035;28;19929;-57
2022/09/24 14:14:28;;;;;;;;;;;21.00;99.90;;;;;;5047071;28;19951;-62
2022/09/24 14:17:05;;;;;;;;;;;21.00;99.90;;;;;;5034732;28;19929;-63
2022/09/24 14:19:33;;;;;;;;;;;21.00;99.90;;;;;;5005322;28;19929;-61
2022/09/24 14:22:01;;;;;;;;;;;21.00;99.90;;;;;;5025162;28;19929;-59
2022/09/24 14:24:28;;;;;;;;;;;21.00;99.90;;;;;;5036011;28;19928;-59
2022/09/24 14:26:59;;;;;;;;;;;21.00;99.90;;;;;;5035951;28;20431;-58
2022/09/24 14:29:48;;;;;;;;;;;21.00;99.90;;;;;;5043081;28;19926;-59
2022/09/24 14:32:23;;;;;;;;;;;21.00;99.90;;;;;;5014164;28;19940;-58
2022/09/24 14:34:52;;;;;;;;;;;21.00;99.90;;;;;;5028063;28;19929;-60
2022/09/24 14:37:21;;;;;;;;;;;21.00;99.90;;;;;;5044601;28;19929;-60
2022/09/24 14:39:49;;;;;;;;;;;21.00;99.90;;;;;;5031313;28;19929;-60
2022/09/24 14:42:20;;;;;;;;;;;21.00;99.90;;;;;;5047728;28;19928;-61
2022/09/24 14:44:47;;;;;;;;;;;21.00;99.90;;;;;;5043904;28;19936;-62
2022/09/24 14:47:28;;;;;;;;;;;21.00;99.90;;;;;;5042194;28;19930;-61